Hlavní strana
METAR-TAF:

METAR-TAF

Letiště :

Tozeur, Tunisko

zeměpisná šířka: 33-55N, zeměpisná délka: 008-06E, výška: 87 m

Aktuální stav počasí

Zpráva byla vytvořena před 37 minutami, v 03:00 UTC
Východní vítr 14 kt
Teplota 15°C
Vlhkost vzduchu 67%
Tlak 1022 hPa

METAR: DTTZ 070300Z AUTO 10014KT NCD 15/09 Q1022

Čas: 04:37 (03:37 UTC)

Předpověď počasí

Zpráva byla vytvořena před 4 hodinami a 37 minutami, v 23:00 UTC
Předpověď platná od 07 v 00 UTC do 07 v 24 UTC
Východní vítr 20 kt
Viditelnost 10 km a více
Žádná oblačnost pod 1500 m, nevyskytují se cumulonimby.
Změna
od 07 v 10 UTC do 07 v 12 UTC
Východní vítr 10 kt
Dočasný
od 07 v 20 UTC do 07 v 24 UTC
Východojihovýchodní vítr 20 kt

TAF: DTTZ 062300Z 0700/0724 09020KT CAVOK BECMG 0710/0712 09010KT TEMPO 0720/0724 11020KT

Stav a předpovědi počasí z více než 4 000 letišť (zprávy METAR a TAF).

Červené a žluté tečky na mapě představují dostupné meteorologické stanice.

Když kurzor umístíte na tečku, zobrazí se název stanice.

Pak kliknutím zobrazíte stav a předpověď počasí.

Chcete-li změnit mapu, kliknutím na zelené tlačítko se znaménkem +mapu přiblížíte, kliknutím na zelené tlačítko se znaménkem – mapu oddálíte a kliknutím na zelené šipky přejdete na sousední mapy.


METAR-TAF: